Time;durP1;ratioP1;P1;durP2;ratioP2;P2;SDS_P1;SDS_P2;PMS_P1;PMS_P2;Temp;Humidity;BMP_temperature;BMP_pressure;BME280_temperature;BME280_humidity;BME280_pressure;Samples;Min_cycle;Max_cycle;Signal;HPM_P1;HPM_P2
2021/04/02 00:01:23;;;;;;;31.43;17.77;;;18.50;29.40;;;;;;5071387;28;20507;-82
2021/04/02 00:03:51;;;;;;;26.00;17.93;;;18.40;29.30;;;;;;5065830;28;20570;-80
2021/04/02 00:06:19;;;;;;;31.70;19.77;;;18.40;30.10;;;;;;5057986;28;20461;-80
2021/04/02 00:08:46;;;;;;;30.03;19.63;;;18.30;29.80;;;;;;5060244;28;20462;-80
2021/04/02 00:11:14;;;;;;;33.93;21.43;;;18.20;29.70;;;;;;5065321;28;20492;-79
2021/04/02 00:13:44;;;;;;;28.10;18.30;;;18.20;29.60;;;;;;5069147;28;20544;-81
2021/04/02 00:16:13;;;;;;;28.07;17.43;;;18.20;29.60;;;;;;5065908;28;20446;-82
2021/04/02 00:18:41;;;;;;;27.67;20.43;;;18.30;30.20;;;;;;5066463;28;20461;-81
2021/04/02 00:21:11;;;;;;;32.43;19.80;;;18.30;30.80;;;;;;5066134;28;20624;-80
2021/04/02 00:23:40;;;;;;;32.07;20.77;;;18.30;30.60;;;;;;5068337;28;20512;-83
2021/04/02 00:26:09;;;;;;;31.00;20.23;;;18.20;31.30;;;;;;5071699;28;20462;-82
2021/04/02 00:28:36;;;;;;;30.10;21.60;;;18.20;30.70;;;;;;5064271;28;20488;-81
2021/04/02 00:31:04;;;;;;;24.80;18.13;;;18.10;31.40;;;;;;5073044;28;20488;-81
2021/04/02 00:33:32;;;;;;;25.23;18.23;;;18.10;31.30;;;;;;5069682;28;20462;-81
2021/04/02 00:36:00;;;;;;;27.73;18.93;;;18.10;30.90;;;;;;5064161;28;20494;-83
2021/04/02 00:38:28;;;;;;;28.83;19.80;;;18.10;30.00;;;;;;5066290;28;20453;-83
2021/04/02 00:40:59;;;;;;;29.17;20.80;;;18.10;32.60;;;;;;5060790;28;21904;-82
2021/04/02 00:43:33;;;;;;;30.80;21.50;;;18.00;30.40;;;;;;5063710;28;20443;-81
2021/04/02 00:46:00;;;;;;;32.93;19.73;;;18.00;31.00;;;;;;5060204;28;20515;-81
2021/04/02 00:48:28;;;;;;;27.70;20.27;;;18.00;31.40;;;;;;5066980;28;20457;-80
2021/04/02 00:50:59;;;;;;;30.00;19.80;;;18.00;32.90;;;;;;5066099;28;20499;-79
2021/04/02 00:53:28;;;;;;;34.03;20.90;;;17.90;31.60;;;;;;5070500;28;20510;-80
2021/04/02 00:55:58;;;;;;;31.30;20.70;;;17.90;31.50;;;;;;5058393;28;20472;-80
2021/04/02 00:58:28;;;;;;;30.37;21.07;;;17.90;32.00;;;;;;5053823;28;20454;-79
2021/04/02 01:00:56;;;;;;;36.07;22.73;;;17.90;31.90;;;;;;5055444;28;20473;-81
2021/04/02 01:03:23;;;;;;;30.03;20.27;;;17.90;32.60;;;;;;5057897;28;20467;-80
2021/04/02 01:05:52;;;;;;;32.60;20.80;;;17.80;32.80;;;;;;5054509;28;20833;-79
2021/04/02 01:08:22;;;;;;;31.27;20.63;;;17.80;32.60;;;;;;5060869;28;20478;-80
2021/04/02 01:10:52;;;;;;;32.20;20.50;;;17.70;33.10;;;;;;5060742;28;20479;-80
2021/04/02 01:13:23;;;;;;;37.23;23.80;;;17.80;33.40;;;;;;5060372;28;20472;-81
2021/04/02 01:15:56;;;;;;;32.93;21.17;;;17.80;33.40;;;;;;5056468;28;20506;-80
2021/04/02 01:18:28;;;;;;;34.43;22.80;;;17.60;32.70;;;;;;5060231;28;20451;-81
2021/04/02 01:20:59;;;;;;;27.27;20.87;;;17.50;33.30;;;;;;5051943;28;20500;-80
2021/04/02 01:23:30;;;;;;;32.60;20.93;;;17.50;32.00;;;;;;5060714;28;20476;-81
2021/04/02 01:26:04;;;;;;;28.83;20.43;;;17.40;32.40;;;;;;5062965;28;20450;-81
2021/04/02 01:28:53;;;;;;;27.47;19.17;;;17.50;33.00;;;;;;5059247;28;20479;-81
2021/04/02 01:31:23;;;;;;;31.30;22.67;;;17.40;32.80;;;;;;5060881;28;20483;-81
2021/04/02 01:33:52;;;;;;;29.97;20.50;;;17.30;32.50;;;;;;5054656;28;20508;-80
2021/04/02 01:36:22;;;;;;;26.80;20.40;;;17.20;33.30;;;;;;5069263;28;20467;-81
2021/04/02 01:38:50;;;;;;;33.33;21.30;;;17.20;33.40;;;;;;5060859;28;20881;-81
2021/04/02 01:41:22;;;;;;;27.47;20.70;;;17.10;33.60;;;;;;5063200;28;20478;-81
2021/04/02 01:43:55;;;;;;;29.40;20.87;;;17.20;33.80;;;;;;5057928;28;20469;-83
2021/04/02 01:46:23;;;;;;;25.73;19.73;;;17.20;47.90;;;;;;5056776;28;20461;-82
2021/04/02 01:48:54;;;;;;;31.10;20.13;;;17.20;33.30;;;;;;5075000;28;20953;-81
2021/04/02 01:51:23;;;;;;;29.43;20.20;;;17.20;33.90;;;;;;5066280;28;20469;-82
2021/04/02 01:53:54;;;;;;;31.70;20.20;;;17.20;34.10;;;;;;5072937;28;20476;-82
2021/04/02 01:56:22;;;;;;;33.50;20.40;;;17.20;33.50;;;;;;5068306;28;20469;-83
2021/04/02 01:58:50;;;;;;;31.17;21.53;;;17.20;34.50;;;;;;5061376;28;20545;-84
2021/04/02 02:01:21;;;;;;;31.03;20.90;;;17.10;32.60;;;;;;5065643;28;20471;-82
2021/04/02 02:03:51;;;;;;;31.67;20.40;;;17.00;33.10;;;;;;5059038;28;20461;-82
2021/04/02 02:06:19;;;;;;;27.10;19.93;;;16.90;33.30;;;;;;5065358;28;20453;-80
2021/04/02 02:08:46;;;;;;;29.10;20.23;;;17.00;34.00;;;;;;5064640;28;20992;-81
2021/04/02 02:11:16;;;;;;;32.37;21.30;;;17.00;33.10;;;;;;5068952;28;20483;-81
2021/04/02 02:13:49;;;;;;;28.47;19.80;;;16.90;33.70;;;;;;5066244;28;20466;-80
2021/04/02 02:16:17;;;;;;;29.13;19.70;;;16.80;32.90;;;;;;5069286;28;20455;-80
2021/04/02 02:18:48;;;;;;;28.30;19.30;;;16.80;33.60;;;;;;5059107;28;20476;-81
2021/04/02 02:21:16;;;;;;;26.73;18.83;;;16.90;33.50;;;;;;5060755;28;21057;-80
2021/04/02 02:23:44;;;;;;;27.57;19.60;;;16.80;34.30;;;;;;5074201;28;20510;-81
2021/04/02 02:26:12;;;;;;;27.67;18.30;;;16.80;33.10;;;;;;5068921;28;20855;-82
2021/04/02 02:28:40;;;;;;;27.10;19.83;;;16.80;32.80;;;;;;5062516;28;20494;-81
2021/04/02 02:31:09;;;;;;;28.77;17.73;;;16.80;32.90;;;;;;5066975;28;20922;-80
2021/04/02 02:33:37;;;;;;;26.83;18.00;;;16.60;33.20;;;;;;5067411;28;20500;-80
2021/04/02 02:36:06;;;;;;;28.07;20.10;;;16.60;33.70;;;;;;5063232;28;20458;-79
2021/04/02 02:38:33;;;;;;;23.47;18.07;;;16.70;32.90;;;;;;5058857;28;21002;-82
2021/04/02 02:41:01;;;;;;;26.47;18.47;;;16.60;32.60;;;;;;5060147;28;20479;-80
2021/04/02 02:43:28;;;;;;;24.67;16.43;;;16.60;34.00;;;;;;5072583;28;20449;-85
2021/04/02 02:45:55;;;;;;;24.67;16.90;;;16.60;33.90;;;;;;5063851;28;20457;-81
2021/04/02 02:48:22;;;;;;;29.63;16.97;;;16.50;34.80;;;;;;5066368;28;20491;-79
2021/04/02 02:50:54;;;;;;;21.47;16.23;;;16.60;35.10;;;;;;5062661;28;20484;-81
2021/04/02 02:53:25;;;;;;;22.30;16.37;;;16.50;33.10;;;;;;5068228;28;20453;-81
2021/04/02 02:55:53;;;;;;;20.10;15.10;;;16.50;33.20;;;;;;5058353;28;20461;-80
2021/04/02 02:58:24;;;;;;;24.40;17.17;;;16.40;34.20;;;;;;5059633;28;20496;-81
2021/04/02 03:00:54;;;;;;;22.27;16.07;;;16.40;33.30;;;;;;5056048;28;20479;-82
2021/04/02 03:03:22;;;;;;;24.87;15.90;;;16.40;33.20;;;;;;5056472;28;20466;-82
2021/04/02 03:05:52;;;;;;;25.00;16.90;;;16.30;32.80;;;;;;5057061;28;20472;-82
2021/04/02 03:08:25;;;;;;;20.87;15.10;;;16.20;32.80;;;;;;5057956;28;20470;-83
2021/04/02 03:10:54;;;;;;;20.37;15.13;;;16.20;33.30;;;;;;5054202;28;20507;-80
2021/04/02 03:13:23;;;;;;;21.73;15.50;;;16.20;33.20;;;;;;5051802;28;20445;-80
2021/04/02 03:15:52;;;;;;;20.30;15.00;;;16.20;33.50;;;;;;5063468;28;20471;-80
2021/04/02 03:18:20;;;;;;;26.53;16.20;;;16.20;33.10;;;;;;5055096;28;20903;-81
2021/04/02 03:20:49;;;;;;;23.93;15.40;;;16.20;33.00;;;;;;5059661;28;20463;-81
2021/04/02 03:23:18;;;;;;;24.97;16.30;;;16.10;33.00;;;;;;5071798;28;20474;-81
2021/04/02 03:25:48;;;;;;;24.77;15.07;;;16.10;32.50;;;;;;5069379;28;20481;-80
2021/04/02 03:28:17;;;;;;;22.20;15.30;;;16.10;32.80;;;;;;5071586;28;20454;-80
2021/04/02 03:30:44;;;;;;;19.17;13.40;;;16.10;32.60;;;;;;5059606;28;20473;-81
2021/04/02 03:33:14;;;;;;;22.00;13.63;;;16.00;31.60;;;;;;5079799;28;20527;-81
2021/04/02 03:35:44;;;;;;;16.87;13.50;;;16.00;45.60;;;;;;5066497;28;20458;-81
2021/04/02 03:38:14;;;;;;;16.03;13.47;;;16.00;31.30;;;;;;5065183;28;20457;-81
2021/04/02 03:44:06;;;;;;;14.97;12.00;;;15.80;29.80;;;;;;5060820;28;20454;-80
2021/04/02 03:46:36;;;;;;;14.70;10.70;;;15.70;30.00;;;;;;5063310;28;20462;-81
2021/04/02 03:49:06;;;;;;;12.57;8.87;;;15.70;29.50;;;;;;5058130;28;20454;-82
2021/04/02 03:51:38;;;;;;;13.43;8.50;;;15.60;28.30;;;;;;5069335;28;20838;-82
2021/04/02 03:54:07;;;;;;;10.40;7.83;;;15.60;27.40;;;;;;5067298;28;20462;-82
2021/04/02 03:56:37;;;;;;;10.27;7.80;;;15.60;25.70;;;;;;5066963;28;20450;-80
2021/04/02 03:59:06;;;;;;;9.43;7.30;;;15.50;24.90;;;;;;5058703;28;20448;-82
2021/04/02 04:01:38;;;;;;;8.57;6.80;;;15.40;23.40;;;;;;5062667;28;21043;-81
2021/04/02 04:04:06;;;;;;;7.03;6.30;;;15.40;21.90;;;;;;5060426;28;20453;-82
2021/04/02 04:06:35;;;;;;;6.40;4.80;;;15.30;20.00;;;;;;5063961;28;20454;-82
2021/04/02 04:09:08;;;;;;;6.07;5.10;;;15.30;17.60;;;;;;5052521;28;20446;-82
2021/04/02 04:11:36;;;;;;;5.10;4.57;;;15.30;14.80;;;;;;5060894;28;20462;-82
2021/04/02 04:14:06;;;;;;;5.10;4.10;;;15.30;14.20;;;;;;5062593;28;20450;-82
2021/04/02 04:16:36;;;;;;;4.93;3.47;;;15.20;11.60;;;;;;5061514;28;20470;-81
2021/04/02 04:19:08;;;;;;;3.77;3.07;;;15.10;10.30;;;;;;5062321;28;20469;-81
2021/04/02 04:21:38;;;;;;;5.73;3.40;;;14.90;7.30;;;;;;5058118;28;20486;-83
2021/04/02 04:24:07;;;;;;;3.93;2.70;;;14.90;5.70;;;;;;5052053;28;20535;-82
2021/04/02 04:27:10;;;;;;;3.20;2.30;;;14.90;5.10;;;;;;5065575;28;20462;-82
2021/04/02 04:30:02;;;;;;;7.37;2.97;;;14.80;4.40;;;;;;5027155;28;20465;-82
2021/04/02 04:32:39;;;;;;;4.27;2.37;;;14.80;2.70;;;;;;5076094;28;20463;-81
2021/04/02 04:35:15;;;;;;;2.73;2.03;;;14.60;1.00;;;;;;5064590;28;20462;-80
2021/04/02 04:37:44;;;;;;;4.47;2.53;;;14.80;1.50;;;;;;5072387;28;20453;-82
2021/04/02 04:40:15;;;;;;;4.10;2.10;;;14.80;1.00;;;;;;5055661;28;20449;-79
2021/04/02 04:42:45;;;;;;;3.17;1.77;;;14.70;1.00;;;;;;5066882;28;20528;-81
2021/04/02 04:45:15;;;;;;;4.37;2.53;;;14.70;1.00;;;;;;5064596;28;20833;-79
2021/04/02 04:47:44;;;;;;;3.33;1.40;;;14.60;1.00;;;;;;5059835;28;20449;-79
2021/04/02 04:50:13;;;;;;;3.50;1.80;;;14.60;1.00;;;;;;5061136;28;20463;-82
2021/04/02 04:52:47;;;;;;;3.20;1.50;;;14.50;1.00;;;;;;5066098;28;20534;-81
2021/04/02 04:55:16;;;;;;;2.70;1.30;;;14.50;1.00;;;;;;5065317;28;20482;-83
2021/04/02 04:57:45;;;;;;;3.53;1.50;;;14.50;1.00;;;;;;5074905;28;20490;-82
2021/04/02 05:00:15;;;;;;;1.83;1.40;;;14.40;1.00;;;;;;5061659;28;20543;-80
2021/04/02 05:02:45;;;;;;;1.80;1.40;;;14.30;1.00;;;;;;5071234;28;20464;-82
2021/04/02 05:05:20;;;;;;;4.40;1.53;;;14.30;1.00;;;;;;5062245;28;20460;-82
2021/04/02 05:07:49;;;;;;;1.60;1.50;;;14.30;1.00;;;;;;5068682;28;20481;-82
2021/04/02 05:10:19;;;;;;;3.00;1.90;;;14.20;1.00;;;;;;5061270;28;20455;-81
2021/04/02 05:12:47;;;;;;;2.43;1.60;;;14.20;1.00;;;;;;5072715;28;20444;-81
2021/04/02 05:15:17;;;;;;;3.77;1.70;;;14.20;1.00;;;;;;5068047;28;20475;-81
2021/04/02 05:17:52;;;;;;;2.93;1.53;;;14.20;1.00;;;;;;5074249;28;21013;-81
2021/04/02 05:20:25;;;;;;;1.80;1.23;;;14.00;1.00;;;;;;5068685;28;20504;-82
2021/04/02 05:22:52;;;;;;;4.67;1.50;;;14.00;1.00;;;;;;5071402;28;20468;-82
2021/04/02 05:25:20;;;;;;;5.20;1.80;;;14.00;1.00;;;;;;5061575;28;20455;-83
2021/04/02 05:27:47;;;;;;;2.80;1.30;;;14.00;1.00;;;;;;5062269;28;20501;-81
2021/04/02 05:30:15;;;;;;;1.90;1.23;;;13.90;1.00;;;;;;5071027;28;20467;-81
2021/04/02 05:32:42;;;;;;;1.90;1.40;;;13.90;1.00;;;;;;5061702;28;20436;-81
2021/04/02 05:35:11;;;;;;;4.50;1.33;;;13.90;1.00;;;;;;5065091;28;20466;-82
2021/04/02 05:37:38;;;;;;;2.30;1.30;;;13.90;1.00;;;;;;5070007;28;20451;-82
2021/04/02 05:40:07;;;;;;;2.93;1.70;;;13.90;1.00;;;;;;5069715;28;20446;-80
2021/04/02 05:42:36;;;;;;;1.57;1.27;;;13.90;1.00;;;;;;5070573;28;20475;-83
2021/04/02 05:45:04;;;;;;;2.10;1.70;;;13.90;1.00;;;;;;5054030;28;20976;-84
2021/04/02 05:47:32;;;;;;;1.77;1.50;;;13.70;1.00;;;;;;5067760;28;20453;-82
2021/04/02 05:50:02;;;;;;;2.43;2.00;;;13.80;1.00;;;;;;5060726;28;20449;-82
2021/04/02 05:52:30;;;;;;;8.20;2.07;;;13.70;1.00;;;;;;5061569;28;20460;-83
2021/04/02 05:55:00;;;;;;;2.00;1.80;;;13.60;1.00;;;;;;5056531;28;20466;-83
2021/04/02 05:57:28;;;;;;;3.93;1.73;;;13.70;1.00;;;;;;5063522;28;20435;-83
2021/04/02 05:59:56;;;;;;;2.70;1.80;;;13.70;1.00;;;;;;5063629;28;20483;-83
2021/04/02 06:02:24;;;;;;;2.23;1.60;;;13.70;1.00;;;;;;5056292;28;20468;-82
2021/04/02 06:04:51;;;;;;;2.77;1.77;;;13.70;1.00;;;;;;5061864;28;20476;-83
2021/04/02 06:07:18;;;;;;;4.63;1.73;;;13.60;1.00;;;;;;5069326;28;20466;-82
2021/04/02 06:09:46;;;;;;;2.70;1.70;;;13.70;1.00;;;;;;5065537;28;20459;-81
2021/04/02 06:12:14;;;;;;;1.87;1.70;;;13.70;1.00;;;;;;5072811;28;20483;-81
2021/04/02 06:14:41;;;;;;;4.17;2.00;;;13.80;1.00;;;;;;5065325;28;20449;-83
2021/04/02 06:17:09;;;;;;;4.83;1.77;;;13.90;1.00;;;;;;5070551;28;20458;-81
2021/04/02 06:19:36;;;;;;;2.00;1.57;;;14.00;1.00;;;;;;5063632;28;20452;-81
2021/04/02 06:22:05;;;;;;;2.37;2.10;;;14.10;1.00;;;;;;5062456;28;20475;-82
2021/04/02 06:24:38;;;;;;;5.33;2.23;;;14.20;1.00;;;;;;5065579;28;20452;-79
2021/04/02 06:27:08;;;;;;;2.43;2.20;;;14.30;1.00;;;;;;5055742;28;21252;-77
2021/04/02 06:29:40;;;;;;;2.67;2.23;;;14.30;1.00;;;;;;5053953;28;20554;-80
2021/04/02 06:32:09;;;;;;;2.60;1.70;;;14.50;1.00;;;;;;5062515;28;20479;-80
2021/04/02 06:34:45;;;;;;;3.80;2.77;;;14.50;1.00;;;;;;5049487;28;20466;-78
2021/04/02 06:37:12;;;;;;;3.63;2.10;;;14.60;1.00;;;;;;5051448;28;20449;-77
2021/04/02 06:39:49;;;;;;;3.03;2.07;;;14.50;1.00;;;;;;5053067;28;20445;-80
2021/04/02 06:42:28;;;;;;;5.70;2.00;;;14.70;1.00;;;;;;5057781;28;20562;-79
2021/04/02 06:44:59;;;;;;;2.40;1.80;;;14.70;1.00;;;;;;5052616;28;20543;-79
2021/04/02 06:47:34;;;;;;;2.13;2.00;;;14.60;1.00;;;;;;5050915;28;21099;-80
2021/04/02 06:50:01;;;;;;;4.10;2.00;;;14.70;1.00;;;;;;5062501;28;20558;-78
2021/04/02 06:52:30;;;;;;;6.60;2.43;;;14.60;1.00;;;;;;5059853;28;20484;-77
2021/04/02 06:54:59;;;;;;;9.60;5.33;;;14.70;1.00;;;;;;5052967;28;20907;-81
2021/04/02 06:57:32;;;;;;;5.90;3.40;;;14.70;1.00;;;;;;5055581;28;20450;-80
2021/04/02 07:00:00;;;;;;;2.70;2.50;;;14.70;1.00;;;;;;5057798;28;20460;-78
2021/04/02 07:02:28;;;;;;;3.03;2.07;;;14.80;1.00;;;;;;5055331;28;20529;-77
2021/04/02 07:05:00;;;;;;;3.33;3.10;;;14.90;1.00;;;;;;5058571;28;20473;-81
2021/04/02 07:07:28;;;;;;;2.23;1.90;;;14.80;1.00;;;;;;5053867;28;20464;-80
2021/04/02 07:09:57;;;;;;;4.63;2.53;;;14.90;1.00;;;;;;5051916;28;20452;-78
2021/04/02 07:12:25;;;;;;;2.83;2.53;;;14.90;1.00;;;;;;5051591;28;20566;-78
2021/04/02 07:14:55;;;;;;;3.23;2.40;;;14.90;1.00;;;;;;5049807;28;20466;-78
2021/04/02 07:17:22;;;;;;;4.23;2.70;;;14.90;1.00;;;;;;5050312;28;20460;-80
2021/04/02 07:20:17;;;;;;;;;;;;;;;;;;;;;
2021/04/02 07:23:12;;;;;;;3.07;2.60;;;15.10;1.00;;;;;;5056447;28;20473;-77
2021/04/02 07:25:40;;;;;;;3.70;3.00;;;15.20;1.00;;;;;;5068519;28;20464;-78
2021/04/02 07:28:08;;;;;;;3.70;2.30;;;15.20;12.10;;;;;;5045496;28;21023;-80
2021/04/02 07:30:37;;;;;;;5.80;3.13;;;15.40;2.00;;;;;;5054978;28;20481;-81
2021/04/02 07:33:08;;;;;;;3.87;2.90;;;15.60;2.60;;;;;;5052341;28;20476;-79
2021/04/02 07:35:37;;;;;;;5.60;2.67;;;15.60;3.60;;;;;;5048693;28;20465;-78
2021/04/02 07:38:06;;;;;;;3.30;3.00;;;15.70;5.00;;;;;;5048933;28;20464;-76
2021/04/02 07:40:35;;;;;;;5.47;2.60;;;15.70;4.20;;;;;;5051315;28;21167;-79
2021/04/02 07:43:07;;;;;;;4.43;2.30;;;15.80;5.90;;;;;;5047024;28;20651;-78
2021/04/02 07:45:37;;;;;;;4.80;2.83;;;15.90;6.50;;;;;;5048747;28;20457;-78
2021/04/02 07:48:12;;;;;;;4.20;3.27;;;15.90;5.30;;;;;;5046947;28;20483;-78
2021/04/02 07:50:43;;;;;;;3.50;3.20;;;15.90;5.50;;;;;;5048424;28;20544;-78
2021/04/02 07:53:15;;;;;;;5.50;3.37;;;15.90;4.30;;;;;;5050793;28;21165;-78
2021/04/02 07:55:49;;;;;;;3.17;2.87;;;16.00;5.80;;;;;;5042235;28;20503;-79
2021/04/02 07:58:25;;;;;;;5.43;3.57;;;16.20;7.90;;;;;;5055055;28;20450;-79
2021/04/02 08:00:55;;;;;;;3.50;3.20;;;16.50;9.30;;;;;;5046675;28;20498;-78
2021/04/02 08:03:25;;;;;;;4.30;3.23;;;16.60;11.60;;;;;;5055118;28;20468;-79
2021/04/02 08:06:07;;;;;;;4.33;3.97;;;16.90;13.40;;;;;;5058952;28;20477;-78
2021/04/02 08:08:45;;;;;;;4.07;2.83;;;17.00;13.60;;;;;;5051979;28;20474;-78
2021/04/02 08:11:19;;;;;;;5.60;3.33;;;17.20;15.40;;;;;;5061977;28;20482;-79
2021/04/02 08:13:58;;;;;;;5.63;3.70;;;17.30;15.60;;;;;;5063777;28;20487;-79
2021/04/02 08:16:48;;;;;;;5.23;4.33;;;17.30;15.80;;;;;;5068823;28;20450;-79
2021/04/02 08:19:19;;;;;;;4.13;3.77;;;17.30;13.50;;;;;;5055069;28;20455;-80
2021/04/02 08:21:49;;;;;;;5.63;4.00;;;17.20;12.70;;;;;;5058858;28;20462;-79
2021/04/02 08:24:18;;;;;;;5.43;4.47;;;17.10;13.40;;;;;;5067242;28;20963;-77
2021/04/02 08:26:46;;;;;;;4.53;4.00;;;17.10;12.60;;;;;;5055114;28;21235;-77
2021/04/02 08:29:15;;;;;;;4.70;4.20;;;16.90;12.10;;;;;;5060757;28;20456;-78
2021/04/02 08:31:49;;;;;;;4.50;4.10;;;17.10;13.20;;;;;;5056587;28;20481;-78
2021/04/02 08:34:19;;;;;;;5.43;3.80;;;17.20;14.10;;;;;;5054237;28;20474;-78
2021/04/02 08:36:48;;;;;;;5.47;4.13;;;17.20;14.20;;;;;;5054230;28;20472;-77
2021/04/02 08:39:18;;;;;;;3.97;3.67;;;17.30;16.20;;;;;;5043807;28;20455;-77
2021/04/02 08:41:45;;;;;;;4.50;4.07;;;17.40;15.00;;;;;;5049329;28;20464;-77
2021/04/02 08:44:12;;;;;;;5.00;4.20;;;17.30;15.80;;;;;;5047241;28;20465;-77
2021/04/02 08:46:44;;;;;;;4.50;4.10;;;17.10;12.60;;;;;;5053907;28;20451;-77
2021/04/02 08:49:14;;;;;;;4.80;4.33;;;17.00;12.30;;;;;;5057611;28;20448;-76
2021/04/02 08:51:46;;;;;;;5.37;4.23;;;16.90;10.70;;;;;;5053063;28;20471;-77
2021/04/02 08:54:16;;;;;;;5.10;4.70;;;16.90;11.40;;;;;;5061615;28;20465;-77
2021/04/02 08:56:44;;;;;;;5.40;4.90;;;17.00;12.10;;;;;;5062132;28;20935;-78
2021/04/02 08:59:12;;;;;;;4.77;4.37;;;17.10;13.70;;;;;;5057341;28;20452;-77
2021/04/02 09:01:42;;;;;;;4.97;4.47;;;17.30;15.70;;;;;;5065592;28;20473;-77
2021/04/02 09:04:12;;;;;;;5.23;4.77;;;17.20;13.90;;;;;;5065610;28;20455;-78
2021/04/02 09:06:40;;;;;;;5.97;5.37;;;17.10;13.70;;;;;;5068143;28;20461;-77
2021/04/02 09:09:17;;;;;;;5.93;5.00;;;17.10;13.10;;;;;;5055352;28;20499;-78
2021/04/02 09:11:46;;;;;;;5.97;4.80;;;17.10;14.30;;;;;;5055566;28;20478;-78
2021/04/02 09:14:14;;;;;;;7.27;6.40;;;17.00;12.90;;;;;;5053743;28;20451;-78
2021/04/02 09:16:43;;;;;;;7.63;5.47;;;17.10;14.00;;;;;;5061939;28;20461;-78
2021/04/02 09:19:13;;;;;;;9.47;5.70;;;17.00;13.30;;;;;;5044848;28;21253;-79
2021/04/02 09:21:52;;;;;;;5.23;4.73;;;16.90;12.70;;;;;;5053527;28;20524;-78
2021/04/02 09:24:20;;;;;;;6.30;4.70;;;17.10;14.40;;;;;;5052752;28;20444;-80
2021/04/02 09:26:48;;;;;;;5.70;5.10;;;17.20;16.80;;;;;;5054652;28;20455;-78
2021/04/02 09:29:19;;;;;;;6.50;4.60;;;17.30;16.50;;;;;;5050359;28;20460;-78
2021/04/02 09:31:47;;;;;;;5.47;4.80;;;17.40;17.50;;;;;;5056314;28;20988;-79
2021/04/02 09:34:18;;;;;;;5.50;5.00;;;17.60;18.50;;;;;;5051095;28;20456;-79
2021/04/02 09:36:47;;;;;;;5.07;4.57;;;17.70;30.40;;;;;;5056225;28;20461;-79
2021/04/02 09:39:18;;;;;;;5.70;5.20;;;17.80;19.40;;;;;;5054230;28;20451;-79
2021/04/02 09:41:51;;;;;;;6.50;5.80;;;17.70;19.30;;;;;;5051669;28;20583;-79
2021/04/02 09:44:21;;;;;;;6.97;6.37;;;17.70;17.80;;;;;;5048140;28;20457;-80
2021/04/02 09:46:49;;;;;;;6.33;5.63;;;17.80;18.30;;;;;;5051311;28;21207;-78
2021/04/02 09:49:19;;;;;;;5.97;5.43;;;17.60;18.60;;;;;;5062483;28;20458;-78
2021/04/02 09:51:48;;;;;;;7.47;6.70;;;17.70;19.40;;;;;;5051034;28;20819;-78
2021/04/02 09:54:17;;;;;;;6.50;5.60;;;17.60;18.60;;;;;;5047918;28;20489;-78
2021/04/02 09:56:47;;;;;;;7.32;6.60;;;17.60;20.10;;;;;;5049156;28;20933;-79
2021/04/02 09:59:14;;;;;;;6.77;6.10;;;17.70;18.90;;;;;;5044932;28;20199;-79
2021/04/02 10:01:43;;;;;;;6.50;5.90;;;17.90;20.30;;;;;;5055166;28;20475;-78
2021/04/02 10:04:11;;;;;;;6.53;5.93;;;18.00;20.80;;;;;;5058616;28;20536;-78
2021/04/02 10:06:40;;;;;;;7.23;6.57;;;18.00;22.30;;;;;;5052009;28;20458;-78
2021/04/02 10:09:08;;;;;;;7.47;6.70;;;18.00;23.10;;;;;;5048488;28;20552;-78
2021/04/02 10:11:37;;;;;;;6.63;6.00;;;18.00;23.00;;;;;;5043693;28;20512;-80
2021/04/02 10:14:06;;;;;;;6.00;5.40;;;18.20;22.60;;;;;;5044048;28;20978;-78
2021/04/02 10:16:33;;;;;;;6.67;5.30;;;18.30;23.20;;;;;;5042754;28;20469;-78
2021/04/02 10:19:02;;;;;;;6.30;5.70;;;18.30;23.50;;;;;;5046067;28;20466;-79
2021/04/02 10:21:31;;;;;;;8.20;5.90;;;18.30;23.20;;;;;;5050710;28;20470;-78
2021/04/02 10:24:00;;;;;;;7.30;6.70;;;18.30;21.90;;;;;;5048715;28;21098;-80
2021/04/02 10:26:38;;;;;;;6.87;6.27;;;18.30;23.50;;;;;;5046840;28;20469;-79
2021/04/02 10:29:06;;;;;;;6.93;6.33;;;18.40;24.00;;;;;;5047866;28;20462;-81
2021/04/02 10:31:35;;;;;;;7.33;6.60;;;18.50;23.00;;;;;;5048243;28;21167;-79
2021/04/02 10:34:12;;;;;;;7.53;6.13;;;18.50;23.70;;;;;;5051065;28;20445;-77
2021/04/02 10:36:40;;;;;;;6.97;5.70;;;18.50;22.80;;;;;;5045558;28;20831;-78
2021/04/02 10:39:09;;;;;;;6.77;6.07;;;18.50;17.10;;;;;;5047733;28;20455;-81
2021/04/02 10:41:37;;;;;;;6.37;5.77;;;18.60;24.20;;;;;;5046693;28;20813;-79
2021/04/02 10:44:05;;;;;;;8.20;6.07;;;18.60;24.70;;;;;;5057218;28;20481;-79
2021/04/02 10:46:32;;;;;;;6.23;5.73;;;18.70;25.80;;;;;;5057380;28;20454;-79
2021/04/02 10:48:59;;;;;;;6.07;5.57;;;18.70;25.20;;;;;;5058949;28;20444;-79
2021/04/02 10:51:41;;;;;;;5.30;4.80;;;18.80;26.90;;;;;;5057529;28;20498;-78
2021/04/02 10:54:09;;;;;;;6.30;5.70;;;19.00;28.70;;;;;;5053625;28;20965;-79
2021/04/02 10:56:36;;;;;;;9.20;6.20;;;19.10;30.20;;;;;;5060604;28;20443;-79
2021/04/02 10:59:04;;;;;;;7.17;6.57;;;19.20;29.50;;;;;;5063416;28;20482;-80
2021/04/02 11:01:31;;;;;;;5.80;5.30;;;19.20;28.60;;;;;;5057232;28;20489;-80
2021/04/02 11:03:58;;;;;;;6.70;6.00;;;19.30;29.60;;;;;;5062178;28;20494;-76
2021/04/02 11:06:26;;;;;;;6.53;5.93;;;19.40;30.50;;;;;;5053171;28;20461;-80
2021/04/02 11:08:53;;;;;;;5.67;5.00;;;19.40;29.00;;;;;;5052046;28;20451;-79
2021/04/02 11:11:21;;;;;;;7.40;6.70;;;19.40;29.60;;;;;;5071720;28;20475;-78
2021/04/02 11:13:48;;;;;;;6.20;5.70;;;19.40;28.10;;;;;;5051418;28;20923;-81
2021/04/02 11:16:15;;;;;;;6.70;6.10;;;19.30;28.50;;;;;;5059696;28;20454;-78
2021/04/02 11:18:45;;;;;;;6.83;6.13;;;19.40;29.40;;;;;;5055811;28;20914;-79
2021/04/02 11:21:12;;;;;;;5.93;5.33;;;19.40;28.80;;;;;;5057555;28;20471;-80
2021/04/02 11:23:40;;;;;;;6.67;6.07;;;19.40;28.90;;;;;;5057431;28;21372;-79
2021/04/02 11:26:07;;;;;;;6.10;5.50;;;19.40;28.50;;;;;;5050551;28;20459;-80
2021/04/02 11:28:35;;;;;;;6.57;6.07;;;19.40;27.60;;;;;;5054118;28;20451;-79
2021/04/02 11:31:03;;;;;;;6.00;5.50;;;19.30;25.80;;;;;;5064048;28;20506;-79
2021/04/02 11:33:30;;;;;;;9.50;5.10;;;19.30;25.70;;;;;;5063922;28;20450;-80
2021/04/02 11:35:58;;;;;;;5.43;5.00;;;19.30;26.90;;;;;;5064150;28;20523;-79
2021/04/02 11:38:26;;;;;;;5.17;4.67;;;19.30;26.70;;;;;;5053916;28;20457;-79
2021/04/02 11:40:53;;;;;;;5.50;5.10;;;19.30;25.60;;;;;;5055310;28;20849;-79
2021/04/02 11:43:21;;;;;;;6.20;5.27;;;19.30;25.30;;;;;;5058932;28;20494;-80
2021/04/02 11:45:49;;;;;;;5.10;4.60;;;19.20;23.00;;;;;;5068089;28;20957;-80
2021/04/02 11:48:16;;;;;;;5.47;4.97;;;19.00;21.90;;;;;;5066943;28;20533;-79
2021/04/02 11:50:43;;;;;;;7.57;6.17;;;19.00;21.30;;;;;;5060213;28;20482;-80
2021/04/02 11:53:10;;;;;;;5.33;4.70;;;19.10;21.40;;;;;;5059949;28;21176;-79
2021/04/02 11:55:38;;;;;;;4.37;4.03;;;19.10;21.10;;;;;;5066256;28;20450;-79
2021/04/02 11:58:07;;;;;;;5.27;4.87;;;18.90;18.80;;;;;;5062490;28;20982;-79
2021/04/02 12:00:34;;;;;;;5.20;4.80;;;18.80;18.30;;;;;;5052134;28;20477;-80
2021/04/02 12:03:03;;;;;;;5.10;4.60;;;18.90;19.40;;;;;;5064066;28;20945;-79
2021/04/02 12:05:31;;;;;;;5.17;4.67;;;18.90;18.70;;;;;;5064278;28;20455;-79
2021/04/02 12:07:58;;;;;;;5.70;5.30;;;18.90;19.00;;;;;;5068453;28;21007;-80
2021/04/02 12:10:25;;;;;;;5.53;5.03;;;18.90;19.20;;;;;;5060142;28;20454;-80
2021/04/02 12:12:52;;;;;;;5.87;5.37;;;19.00;21.20;;;;;;5065181;28;20460;-79
2021/04/02 12:15:20;;;;;;;5.47;4.97;;;19.10;22.10;;;;;;5057328;28;20522;-80
2021/04/02 12:17:50;;;;;;;5.60;5.07;;;19.20;22.00;;;;;;5066235;28;20504;-80
2021/04/02 12:20:19;;;;;;;6.07;5.43;;;19.30;22.30;;;;;;5060849;28;20453;-80
2021/04/02 12:22:47;;;;;;;6.70;4.57;;;19.10;20.60;;;;;;5062100;28;20478;-79
2021/04/02 12:25:16;;;;;;;5.20;4.80;;;19.00;21.60;;;;;;5055700;28;21645;-81
2021/04/02 12:27:43;;;;;;;5.10;4.70;;;19.10;19.80;;;;;;5060138;28;20469;-80
2021/04/02 12:30:13;;;;;;;4.70;4.20;;;19.20;20.10;;;;;;5064950;28;20478;-80
2021/04/02 12:32:40;;;;;;;5.03;4.63;;;19.10;20.10;;;;;;5058479;28;20828;-80
2021/04/02 12:35:09;;;;;;;4.73;4.33;;;19.30;22.40;;;;;;5059992;28;20527;-79
2021/04/02 12:37:38;;;;;;;4.97;4.63;;;19.20;20.10;;;;;;5066507;28;20449;-81
2021/04/02 12:40:10;;;;;;;4.53;4.23;;;19.10;20.30;;;;;;5052236;28;20469;-79
2021/04/02 12:42:38;;;;;;;4.00;3.70;;;19.20;20.90;;;;;;5062960;28;20482;-79
2021/04/02 12:48:12;;;;;;;4.90;4.50;;;19.30;20.60;;;;;;5051246;28;20466;-79
2021/04/02 12:50:40;;;;;;;5.70;5.20;;;19.40;21.70;;;;;;5066257;28;20458;-80
2021/04/02 12:53:09;;;;;;;7.37;6.40;;;19.40;23.50;;;;;;5063517;28;20930;-79
2021/04/02 12:55:39;;;;;;;5.20;4.80;;;19.50;23.40;;;;;;5053990;28;20455;-80
2021/04/02 12:58:06;;;;;;;5.33;4.97;;;19.50;24.10;;;;;;5068455;28;21148;-80
2021/04/02 13:00:33;;;;;;;5.33;4.93;;;19.60;23.50;;;;;;5066991;28;20451;-80
2021/04/02 13:03:02;;;;;;;4.63;4.23;;;19.60;24.00;;;;;;5063936;28;20900;-80
2021/04/02 13:05:29;;;;;;;6.07;4.77;;;19.60;23.60;;;;;;5070576;28;20472;-80